Time;durP1;ratioP1;P1;durP2;ratioP2;P2;SDS_P1;SDS_P2;PMS_P1;PMS_P2;Temp;Humidity;BMP_temperature;BMP_pressure;BME280_temperature;BME280_humidity;BME280_pressure;Samples;Min_cycle;Max_cycle;Signal;HPM_P1;HPM_P2
2023/06/02 00:02:17;;;;;;;10.30;9.30;;;15.60;94.60;;;;;;4953993;28;20428;-60
2023/06/02 00:04:44;;;;;;;8.73;7.93;;;15.60;95.10;;;;;;4955126;29;20211;-61
2023/06/02 00:07:11;;;;;;;8.30;7.50;;;15.50;95.30;;;;;;4953872;28;20673;-60
2023/06/02 00:09:41;;;;;;;8.53;7.70;;;15.50;94.90;;;;;;4954741;28;20412;-61
2023/06/02 00:12:08;;;;;;;8.10;7.27;;;15.60;95.20;;;;;;4954385;28;20413;-59
2023/06/02 00:14:34;;;;;;;8.03;7.03;;;15.60;95.60;;;;;;4954390;28;20462;-61
2023/06/02 00:17:00;;;;;;;7.43;6.73;;;15.60;95.40;;;;;;4954888;28;20499;-62
2023/06/02 00:19:33;;;;;;;7.40;6.70;;;15.60;95.50;;;;;;4953683;28;20854;-61
2023/06/02 00:22:05;;;;;;;7.50;6.90;;;15.60;95.50;;;;;;4954645;29;20407;-61
2023/06/02 00:24:31;;;;;;;8.00;7.23;;;15.60;95.40;;;;;;4953144;29;20420;-61
2023/06/02 00:26:57;;;;;;;8.40;7.80;;;15.60;95.40;;;;;;4954680;28;20475;-61
2023/06/02 00:29:23;;;;;;;8.20;7.40;;;15.60;95.80;;;;;;4953870;29;20443;-61
2023/06/02 00:31:49;;;;;;;8.40;7.60;;;15.60;95.50;;;;;;4954573;28;20893;-61
2023/06/02 00:34:14;;;;;;;8.40;7.70;;;15.60;95.20;;;;;;4953880;29;20176;-61
2023/06/02 00:36:40;;;;;;;8.50;7.60;;;15.60;95.40;;;;;;4954087;28;20767;-64
2023/06/02 00:39:07;;;;;;;8.23;7.63;;;15.60;95.40;;;;;;4954418;28;20502;-63
2023/06/02 00:41:33;;;;;;;8.13;7.53;;;15.60;95.30;;;;;;4954270;28;20419;-63
2023/06/02 00:43:59;;;;;;;8.70;7.80;;;15.60;95.40;;;;;;4952719;29;20467;-64
2023/06/02 00:46:25;;;;;;;9.20;8.30;;;15.60;95.20;;;;;;4953630;29;20404;-63
2023/06/02 00:48:51;;;;;;;12.33;7.87;;;15.60;94.90;;;;;;4952805;29;20454;-63
2023/06/02 00:51:17;;;;;;;8.93;8.13;;;15.70;95.20;;;;;;4953783;29;20243;-62
2023/06/02 00:53:45;;;;;;;8.90;8.30;;;15.60;94.70;;;;;;4954018;29;20772;-63
2023/06/02 00:56:14;;;;;;;8.93;8.13;;;15.50;94.60;;;;;;4953666;28;20412;-62
2023/06/02 00:58:44;;;;;;;9.03;7.97;;;15.40;94.90;;;;;;4953770;28;20494;-52
2023/06/02 01:01:10;;;;;;;11.30;8.53;;;15.40;95.20;;;;;;4953409;29;20412;-66
2023/06/02 01:03:45;;;;;;;8.20;7.50;;;15.30;95.20;;;;;;4953641;28;20471;-54
2023/06/02 01:06:12;;;;;;;8.80;8.10;;;15.30;95.50;;;;;;4953342;28;20403;-51
2023/06/02 01:08:40;;;;;;;9.40;8.03;;;15.30;95.30;;;;;;4968784;28;20447;-48
2023/06/02 01:11:07;;;;;;;8.10;7.30;;;15.30;95.70;;;;;;4953955;28;20904;-49
2023/06/02 01:13:33;;;;;;;9.40;8.70;;;15.30;95.80;;;;;;4953426;28;20422;-51
2023/06/02 01:15:59;;;;;;;10.37;8.53;;;15.30;95.90;;;;;;4953679;28;20468;-58
2023/06/02 01:18:29;;;;;;;10.70;8.53;;;15.30;95.80;;;;;;4952960;28;20829;-57
2023/06/02 01:20:58;;;;;;;10.17;8.37;;;15.20;95.80;;;;;;4953983;28;20184;-58
2023/06/02 01:23:33;;;;;;;11.13;8.30;;;15.20;96.00;;;;;;4953431;28;20516;-58
2023/06/02 01:26:00;;;;;;;9.70;8.80;;;15.20;95.50;;;;;;4953797;28;20439;-58
2023/06/02 01:28:26;;;;;;;8.80;8.10;;;15.20;95.80;;;;;;4953239;28;20454;-58
2023/06/02 01:31:02;;;;;;;9.07;8.27;;;15.10;95.80;;;;;;4954486;28;20438;-58
2023/06/02 01:33:27;;;;;;;9.50;8.70;;;15.10;95.90;;;;;;4956936;28;20411;-58
2023/06/02 01:35:57;;;;;;;11.30;9.00;;;15.10;95.70;;;;;;4955949;28;20419;-58
2023/06/02 01:38:26;;;;;;;11.03;9.47;;;15.10;95.10;;;;;;4953589;28;20193;-58
2023/06/02 01:40:55;;;;;;;14.70;10.50;;;14.90;95.20;;;;;;4938137;29;20446;-58
2023/06/02 01:43:21;;;;;;;11.07;9.97;;;14.90;95.60;;;;;;4936865;29;20816;-58
2023/06/02 01:45:47;;;;;;;16.40;10.83;;;14.80;95.40;;;;;;4937499;29;20439;-58
2023/06/02 01:48:13;;;;;;;15.10;11.50;;;14.80;95.80;;;;;;4938579;29;20248;-58
2023/06/02 01:50:40;;;;;;;14.60;11.23;;;14.80;96.10;;;;;;4957099;29;20415;-58
2023/06/02 01:53:06;;;;;;;11.37;9.20;;;14.60;95.80;;;;;;4957139;28;20555;-58
2023/06/02 01:55:33;;;;;;;9.33;8.20;;;14.60;95.60;;;;;;4956112;28;21209;-58
2023/06/02 01:57:59;;;;;;;9.90;7.67;;;14.60;95.70;;;;;;4957039;28;20299;-58
2023/06/02 02:00:26;;;;;;;8.13;7.43;;;14.70;95.40;;;;;;4955792;29;20514;-58
2023/06/02 02:02:52;;;;;;;8.37;7.77;;;14.60;95.50;;;;;;4957035;29;20740;-58
2023/06/02 02:05:18;;;;;;;8.30;7.50;;;14.60;95.70;;;;;;4954845;29;20427;-58
2023/06/02 02:07:47;;;;;;;8.53;7.57;;;14.60;95.30;;;;;;4956775;29;20518;-58
2023/06/02 02:10:14;;;;;;;8.60;7.70;;;14.60;95.90;;;;;;4955178;29;20419;-58
2023/06/02 02:12:40;;;;;;;10.93;8.50;;;14.70;95.00;;;;;;4957024;29;20418;-58
2023/06/02 02:15:07;;;;;;;8.40;7.70;;;14.70;94.50;;;;;;4956878;28;20948;-58
2023/06/02 02:17:34;;;;;;;8.00;7.20;;;14.70;94.60;;;;;;4955780;28;20443;-58
2023/06/02 02:20:00;;;;;;;8.50;7.50;;;14.70;95.20;;;;;;4955309;29;20845;-58
2023/06/02 02:22:26;;;;;;;11.37;7.30;;;14.70;94.60;;;;;;4954739;29;20826;-58
2023/06/02 02:24:52;;;;;;;11.90;10.00;;;14.70;94.40;;;;;;4956340;29;20411;-58
2023/06/02 02:27:18;;;;;;;10.30;9.20;;;14.60;94.50;;;;;;4955918;29;20213;-58
2023/06/02 02:29:44;;;;;;;13.10;9.60;;;14.60;94.50;;;;;;4956521;28;20182;-57
2023/06/02 02:32:10;;;;;;;11.00;8.20;;;14.60;94.70;;;;;;4956275;29;20429;-58
2023/06/02 02:34:38;;;;;;;12.10;8.00;;;14.60;94.80;;;;;;4955835;29;20407;-58
2023/06/02 02:37:06;;;;;;;13.00;8.97;;;14.60;94.20;;;;;;4956159;28;20175;-58
2023/06/02 02:39:33;;;;;;;9.03;6.73;;;14.60;94.30;;;;;;4955519;28;20838;-58
2023/06/02 02:42:00;;;;;;;8.67;7.77;;;14.60;94.50;;;;;;4955904;28;20416;-58
2023/06/02 02:44:25;;;;;;;9.40;8.50;;;14.60;94.00;;;;;;4955120;28;20604;-58
2023/06/02 02:46:51;;;;;;;13.17;8.53;;;14.60;93.80;;;;;;4955538;28;20967;-58
2023/06/02 02:49:17;;;;;;;8.47;7.77;;;14.50;94.10;;;;;;4955394;29;20274;-58
2023/06/02 02:51:42;;;;;;;8.13;7.30;;;14.50;94.60;;;;;;4955760;29;20183;-58
2023/06/02 02:54:08;;;;;;;11.53;8.00;;;14.60;94.20;;;;;;4956033;29;20673;-57
2023/06/02 02:56:35;;;;;;;11.20;7.90;;;14.60;94.10;;;;;;4954854;29;20182;-58
2023/06/02 02:59:02;;;;;;;12.00;8.67;;;14.60;94.00;;;;;;4955954;29;20239;-58
2023/06/02 03:01:29;;;;;;;8.23;7.53;;;14.60;93.60;;;;;;4953602;29;20419;-58
2023/06/02 03:03:56;;;;;;;8.07;6.90;;;14.50;93.60;;;;;;4956072;29;20890;-58
2023/06/02 03:06:28;;;;;;;12.17;7.57;;;14.50;93.80;;;;;;4954870;28;20411;-58
2023/06/02 03:08:54;;;;;;;15.77;7.30;;;14.40;93.60;;;;;;4955834;28;20438;-58
2023/06/02 03:11:21;;;;;;;7.27;6.57;;;14.30;93.80;;;;;;4954962;28;20441;-58
2023/06/02 03:13:47;;;;;;;12.20;7.93;;;14.20;94.00;;;;;;4955779;29;20755;-57
2023/06/02 03:16:13;;;;;;;7.73;6.63;;;14.30;94.10;;;;;;4953810;29;20416;-57
2023/06/02 03:18:39;;;;;;;8.40;7.60;;;14.30;93.90;;;;;;4954872;29;20983;-58
2023/06/02 03:21:06;;;;;;;8.60;7.57;;;14.30;93.90;;;;;;4955362;28;20414;-58
2023/06/02 03:23:32;;;;;;;8.87;6.93;;;14.30;93.80;;;;;;4954888;28;20446;-58
2023/06/02 03:26:00;;;;;;;9.70;6.53;;;14.30;94.20;;;;;;4955275;29;20443;-58
2023/06/02 03:28:25;;;;;;;8.17;7.47;;;14.30;93.90;;;;;;4954666;28;20288;-58
2023/06/02 03:30:51;;;;;;;11.67;7.40;;;14.30;94.00;;;;;;4955021;29;20446;-57
2023/06/02 03:33:17;;;;;;;10.63;7.90;;;14.30;93.70;;;;;;4954526;29;20178;-58
2023/06/02 03:35:42;;;;;;;9.80;7.87;;;14.30;93.60;;;;;;4955001;29;20645;-58
2023/06/02 03:38:08;;;;;;;10.40;7.03;;;14.30;93.70;;;;;;4955446;29;20177;-58
2023/06/02 03:40:34;;;;;;;10.50;9.50;;;14.30;94.30;;;;;;4954363;29;20181;-57
2023/06/02 03:43:00;;;;;;;10.47;8.97;;;14.30;94.00;;;;;;4955171;28;20235;-58
2023/06/02 03:45:26;;;;;;;12.00;8.50;;;14.30;93.70;;;;;;4954456;29;20519;-57
2023/06/02 03:47:52;;;;;;;8.37;7.60;;;14.30;93.60;;;;;;4953284;29;20472;-57
2023/06/02 03:50:18;;;;;;;7.17;6.43;;;14.40;94.00;;;;;;4954282;29;20188;-58
2023/06/02 03:52:44;;;;;;;9.23;8.10;;;14.40;93.50;;;;;;4954718;29;20247;-57
2023/06/02 03:55:10;;;;;;;10.17;9.37;;;14.40;93.40;;;;;;4954343;28;20183;-57
2023/06/02 03:57:35;;;;;;;8.20;7.40;;;14.40;93.50;;;;;;4954069;29;20436;-58
2023/06/02 04:00:01;;;;;;;8.80;7.93;;;14.40;93.30;;;;;;4954880;29;20234;-57
2023/06/02 04:02:27;;;;;;;9.30;7.97;;;14.40;93.50;;;;;;4953879;28;20567;-57
2023/06/02 04:04:53;;;;;;;11.37;8.07;;;14.50;93.90;;;;;;4954740;29;20257;-58
2023/06/02 04:07:19;;;;;;;9.67;8.37;;;14.50;94.10;;;;;;4953903;29;20232;-58
2023/06/02 04:09:45;;;;;;;9.17;8.30;;;14.50;94.00;;;;;;4954784;28;20937;-57
2023/06/02 04:12:10;;;;;;;10.20;9.03;;;14.40;93.70;;;;;;4954794;29;20607;-58
2023/06/02 04:14:37;;;;;;;10.27;7.97;;;14.40;93.90;;;;;;4953904;29;20489;-58
2023/06/02 04:17:03;;;;;;;12.47;8.60;;;14.40;94.30;;;;;;4954355;29;20178;-58
2023/06/02 04:19:28;;;;;;;15.57;10.27;;;14.40;93.90;;;;;;4953760;28;20414;-58
2023/06/02 04:21:57;;;;;;;12.87;9.03;;;14.30;93.90;;;;;;4954576;28;20412;-58
2023/06/02 04:24:23;;;;;;;11.80;10.00;;;14.30;94.50;;;;;;4954192;29;20429;-58
2023/06/02 04:26:48;;;;;;;15.17;10.77;;;14.30;94.80;;;;;;4954355;29;20418;-58
2023/06/02 04:29:16;;;;;;;11.70;10.27;;;14.30;94.10;;;;;;4953640;28;20240;-58
2023/06/02 04:31:45;;;;;;;12.83;8.90;;;14.20;93.70;;;;;;4954469;28;20397;-57
2023/06/02 04:34:12;;;;;;;13.23;9.90;;;14.20;94.30;;;;;;4954195;29;20409;-58
2023/06/02 04:36:38;;;;;;;13.63;10.00;;;14.20;94.00;;;;;;4953750;29;20459;-57
2023/06/02 04:39:08;;;;;;;12.47;10.70;;;14.10;94.30;;;;;;4954143;29;20421;-57
2023/06/02 04:41:36;;;;;;;11.27;8.67;;;14.20;94.50;;;;;;4953543;28;20707;-58
2023/06/02 04:44:02;;;;;;;12.37;9.73;;;14.20;94.30;;;;;;4954480;29;20469;-57
2023/06/02 04:46:28;;;;;;;12.67;9.03;;;14.10;94.90;;;;;;4953433;29;20751;-57
2023/06/02 04:48:54;;;;;;;10.30;7.90;;;14.10;94.60;;;;;;4953365;28;20463;-57
2023/06/02 04:51:27;;;;;;;9.03;8.07;;;14.00;95.00;;;;;;4953717;29;20818;-58
2023/06/02 04:53:53;;;;;;;11.00;9.00;;;14.10;95.10;;;;;;4953953;29;20783;-58
2023/06/02 04:56:19;;;;;;;10.93;9.27;;;14.10;94.60;;;;;;4952157;29;20510;-58
2023/06/02 04:58:45;;;;;;;9.03;7.90;;;14.20;95.40;;;;;;4954033;29;20495;-57
2023/06/02 05:01:11;;;;;;;8.50;7.70;;;14.20;94.80;;;;;;4954182;28;20507;-57
2023/06/02 05:03:36;;;;;;;11.73;8.57;;;14.10;94.50;;;;;;4952957;29;20415;-57
2023/06/02 05:06:02;;;;;;;12.27;8.70;;;14.10;94.60;;;;;;4954581;28;20188;-57
2023/06/02 05:08:28;;;;;;;9.73;7.20;;;14.10;95.20;;;;;;4955445;29;20237;-57
2023/06/02 05:10:54;;;;;;;12.37;7.57;;;14.20;95.30;;;;;;4958022;29;20238;-57
2023/06/02 05:13:19;;;;;;;12.67;7.10;;;14.30;94.70;;;;;;4956941;29;20177;-58
2023/06/02 05:15:45;;;;;;;8.67;7.87;;;14.20;94.00;;;;;;4957632;29;20220;-57
2023/06/02 05:18:14;;;;;;;7.37;6.70;;;14.30;94.30;;;;;;4957101;29;20181;-57
2023/06/02 05:20:41;;;;;;;9.90;7.50;;;14.30;94.30;;;;;;4957616;28;20414;-57
2023/06/02 05:23:07;;;;;;;10.40;7.43;;;14.40;94.50;;;;;;4957674;29;20402;-57
2023/06/02 05:25:33;;;;;;;10.27;6.43;;;14.30;94.20;;;;;;4957342;29;20413;-58
2023/06/02 05:27:59;;;;;;;7.40;6.17;;;14.40;93.90;;;;;;4957270;29;20453;-58
2023/06/02 05:30:25;;;;;;;9.37;7.00;;;14.40;93.80;;;;;;4956956;29;20179;-57
2023/06/02 05:32:50;;;;;;;6.50;5.90;;;14.40;93.70;;;;;;4957633;29;20444;-56
2023/06/02 05:35:16;;;;;;;10.87;6.00;;;14.40;93.30;;;;;;4956708;29;20443;-58
2023/06/02 05:37:42;;;;;;;12.43;8.57;;;14.50;93.80;;;;;;4957362;29;20189;-57
2023/06/02 05:40:10;;;;;;;6.20;5.40;;;14.50;94.10;;;;;;4957269;28;20180;-58
2023/06/02 05:42:35;;;;;;;8.13;6.37;;;14.50;93.90;;;;;;4956190;29;20579;-58
2023/06/02 05:45:05;;;;;;;8.60;7.90;;;14.50;94.90;;;;;;4956923;29;20489;-57
2023/06/02 05:47:31;;;;;;;10.47;7.60;;;14.40;93.90;;;;;;4956274;28;20469;-57
2023/06/02 05:49:57;;;;;;;10.30;7.93;;;14.40;94.30;;;;;;4956209;29;20461;-57
2023/06/02 05:52:23;;;;;;;6.87;5.80;;;14.40;94.40;;;;;;4955987;29;20420;-56
2023/06/02 05:54:50;;;;;;;6.90;5.37;;;14.30;93.70;;;;;;4956810;29;20422;-57
2023/06/02 05:57:17;;;;;;;11.70;10.50;;;14.30;94.10;;;;;;4956479;29;20179;-58
2023/06/02 05:59:43;;;;;;;8.80;6.73;;;14.40;94.50;;;;;;4956828;29;20425;-58
2023/06/02 06:02:09;;;;;;;6.70;6.07;;;14.40;94.40;;;;;;4956729;29;20414;-58
2023/06/02 06:04:35;;;;;;;7.40;6.80;;;14.50;94.50;;;;;;4955944;29;20414;-58
2023/06/02 06:07:02;;;;;;;8.87;6.87;;;14.50;94.20;;;;;;4956831;29;20493;-58
2023/06/02 06:09:28;;;;;;;7.90;6.97;;;14.60;94.10;;;;;;4955703;28;20171;-58
2023/06/02 06:11:54;;;;;;;9.37;8.57;;;14.60;93.90;;;;;;4955917;29;20914;-61
2023/06/02 06:14:20;;;;;;;9.83;6.40;;;14.60;94.10;;;;;;4956129;29;20415;-47
2023/06/02 06:16:45;;;;;;;8.90;5.77;;;14.70;93.60;;;;;;4956246;28;20623;-48
2023/06/02 06:19:12;;;;;;;8.97;8.07;;;14.70;93.40;;;;;;4956617;28;20196;-58
2023/06/02 06:21:38;;;;;;;10.73;8.80;;;14.70;93.50;;;;;;4955937;29;20413;-48
2023/06/02 06:24:05;;;;;;;9.63;8.87;;;14.70;93.40;;;;;;4956433;29;20413;-48
2023/06/02 06:26:31;;;;;;;8.30;7.63;;;14.80;93.80;;;;;;4955893;29;20430;-47
2023/06/02 06:28:56;;;;;;;5.93;5.03;;;14.80;93.80;;;;;;4955293;29;20454;-49
2023/06/02 06:31:22;;;;;;;7.80;5.90;;;14.80;93.20;;;;;;4955961;29;20711;-50
2023/06/02 06:33:48;;;;;;;11.37;8.13;;;14.80;93.40;;;;;;4956511;29;20267;-54
2023/06/02 06:36:14;;;;;;;7.83;7.07;;;14.80;93.10;;;;;;4956353;29;20531;-52
2023/06/02 06:38:41;;;;;;;9.00;6.97;;;14.80;92.80;;;;;;4955285;29;20179;-52
2023/06/02 06:41:06;;;;;;;6.33;5.73;;;14.70;92.70;;;;;;4956360;29;20408;-53
2023/06/02 06:43:32;;;;;;;9.23;5.50;;;14.70;92.90;;;;;;4955002;29;20476;-49
2023/06/02 06:46:01;;;;;;;6.57;5.13;;;14.70;93.00;;;;;;4954780;29;20186;-48
2023/06/02 06:48:27;;;;;;;10.70;9.70;;;14.70;93.50;;;;;;4955296;29;20664;-51
2023/06/02 06:50:53;;;;;;;9.43;6.10;;;14.70;93.50;;;;;;4955648;29;20919;-49
2023/06/02 06:53:19;;;;;;;13.03;9.00;;;14.80;93.70;;;;;;4955550;29;20403;-51
2023/06/02 06:55:45;;;;;;;11.20;8.33;;;14.80;93.50;;;;;;4956009;28;20415;-49
2023/06/02 06:58:11;;;;;;;13.27;7.67;;;14.90;93.50;;;;;;4956063;29;20429;-50
2023/06/02 07:00:38;;;;;;;9.50;8.70;;;14.90;93.00;;;;;;4955207;29;20666;-50
2023/06/02 07:03:03;;;;;;;9.20;6.03;;;14.90;92.70;;;;;;4955491;29;20522;-48
2023/06/02 07:05:29;;;;;;;12.57;7.93;;;14.90;93.30;;;;;;4954734;29;20429;-48
2023/06/02 07:07:58;;;;;;;8.20;6.23;;;14.90;92.60;;;;;;4955444;28;20215;-48
2023/06/02 07:10:23;;;;;;;9.73;5.47;;;14.90;92.70;;;;;;4955178;29;20330;-49
2023/06/02 07:12:49;;;;;;;12.83;9.93;;;14.90;92.90;;;;;;4956225;29;20881;-48
2023/06/02 07:15:15;;;;;;;8.63;7.50;;;15.00;93.60;;;;;;4955998;28;20278;-48
2023/06/02 07:17:42;;;;;;;11.70;7.40;;;15.10;93.50;;;;;;4955098;28;20184;-49
2023/06/02 07:20:12;;;;;;;11.90;9.90;;;15.10;92.50;;;;;;4955587;29;20177;-49
2023/06/02 07:22:38;;;;;;;11.30;9.10;;;15.10;92.70;;;;;;4954910;29;20832;-48
2023/06/02 07:25:04;;;;;;;18.90;10.50;;;15.20;92.50;;;;;;4955579;29;20417;-49
2023/06/02 07:27:31;;;;;;;12.80;8.20;;;15.30;92.80;;;;;;4954917;29;20460;-48
2023/06/02 07:29:58;;;;;;;9.53;6.80;;;15.30;92.80;;;;;;4954876;28;20759;-49
2023/06/02 07:32:23;;;;;;;9.40;8.43;;;15.40;92.40;;;;;;4954834;29;20412;-48
2023/06/02 07:34:49;;;;;;;7.23;6.53;;;15.50;92.40;;;;;;4955455;29;20480;-49
2023/06/02 07:37:15;;;;;;;8.30;7.70;;;15.50;92.20;;;;;;4955397;29;20208;-49
2023/06/02 07:39:41;;;;;;;7.50;6.80;;;15.50;92.80;;;;;;4954724;29;20271;-48
2023/06/02 07:42:07;;;;;;;8.23;6.50;;;15.50;93.10;;;;;;4955642;29;20415;-48
2023/06/02 07:44:32;;;;;;;12.53;8.97;;;15.60;92.40;;;;;;4953139;29;20235;-48
2023/06/02 07:46:58;;;;;;;6.53;5.93;;;15.50;91.80;;;;;;4953872;29;20431;-49
2023/06/02 07:49:24;;;;;;;9.80;6.57;;;15.50;92.10;;;;;;4954450;29;20267;-48
2023/06/02 07:51:50;;;;;;;8.07;6.27;;;15.50;91.70;;;;;;4953913;29;20267;-49
2023/06/02 07:54:15;;;;;;;8.33;6.33;;;15.50;92.20;;;;;;4954957;29;20417;-48
2023/06/02 07:56:41;;;;;;;7.70;7.00;;;15.50;91.90;;;;;;4953119;29;20235;-49
2023/06/02 07:59:11;;;;;;;7.40;6.07;;;15.40;91.70;;;;;;4954957;29;20259;-49
2023/06/02 08:01:40;;;;;;;6.40;5.67;;;15.50;91.80;;;;;;4954941;28;20737;-48
2023/06/02 08:04:06;;;;;;;7.50;7.00;;;15.50;92.70;;;;;;4954885;29;20778;-48
2023/06/02 08:06:32;;;;;;;6.93;5.20;;;15.60;91.80;;;;;;4954176;29;20425;-48
2023/06/02 08:08:57;;;;;;;10.73;8.27;;;15.60;92.00;;;;;;4954552;29;20204;-50
2023/06/02 08:11:24;;;;;;;5.60;5.20;;;15.70;91.90;;;;;;4954226;29;20189;-49
2023/06/02 08:13:50;;;;;;;9.17;6.60;;;15.70;91.50;;;;;;4954394;29;20208;-49
2023/06/02 08:16:16;;;;;;;8.80;8.10;;;15.70;90.70;;;;;;4954788;29;20420;-50
2023/06/02 08:18:42;;;;;;;8.67;7.67;;;15.70;91.80;;;;;;4954197;29;20528;-48
2023/06/02 08:21:08;;;;;;;7.90;7.20;;;15.70;91.50;;;;;;4954689;29;20525;-52
2023/06/02 08:23:33;;;;;;;11.40;6.17;;;15.80;91.60;;;;;;4954426;28;20173;-49
2023/06/02 08:26:00;;;;;;;7.10;5.33;;;15.80;91.60;;;;;;4954662;29;20504;-48
2023/06/02 08:28:29;;;;;;;9.60;5.80;;;15.70;91.70;;;;;;4953986;28;20213;-50
2023/06/02 08:30:58;;;;;;;7.47;5.40;;;15.80;92.80;;;;;;4954625;29;20495;-50
2023/06/02 08:33:24;;;;;;;6.83;6.23;;;15.90;92.70;;;;;;4954002;29;20417;-58
2023/06/02 08:35:51;;;;;;;8.17;7.47;;;16.00;91.90;;;;;;4954503;28;20412;-48
2023/06/02 08:38:20;;;;;;;8.73;7.93;;;16.10;91.60;;;;;;4953297;29;20425;-50
2023/06/02 08:40:47;;;;;;;7.57;6.33;;;16.10;91.40;;;;;;4954819;28;20415;-51
2023/06/02 08:43:14;;;;;;;7.93;7.13;;;16.30;91.60;;;;;;4957889;29;20884;-48
2023/06/02 08:45:44;;;;;;;7.97;6.10;;;16.40;91.60;;;;;;4957319;28;20480;-50
2023/06/02 08:48:17;;;;;;;10.63;6.07;;;16.60;90.70;;;;;;4958376;29;20452;-49
2023/06/02 08:50:46;;;;;;;9.60;6.00;;;16.70;91.00;;;;;;4957852;29;20393;-48
2023/06/02 08:53:15;;;;;;;10.07;7.20;;;16.90;91.00;;;;;;4958357;28;20420;-48
2023/06/02 08:55:42;;;;;;;7.47;6.63;;;17.20;91.00;;;;;;4956311;29;20440;-50
2023/06/02 08:58:11;;;;;;;7.03;6.23;;;17.30;90.00;;;;;;4958228;28;20459;-50
2023/06/02 09:00:37;;;;;;;7.00;5.40;;;17.50;87.50;;;;;;4957874;28;20425;-49
2023/06/02 09:03:06;;;;;;;7.53;6.70;;;17.60;88.70;;;;;;4958200;29;20416;-49
2023/06/02 09:05:33;;;;;;;9.33;7.77;;;17.70;87.40;;;;;;4957692;28;20905;-49
2023/06/02 09:08:14;;;;;;;9.27;8.37;;;17.80;87.30;;;;;;4957804;29;20456;-48
2023/06/02 09:10:41;;;;;;;6.90;5.40;;;17.90;87.10;;;;;;4956964;29;20810;-51
2023/06/02 09:13:30;;;;;;;7.97;5.83;;;17.90;83.30;;;;;;4957571;28;20495;-52
2023/06/02 09:16:01;;;;;;;8.43;5.77;;;17.90;84.10;;;;;;4957855;28;20385;-49
2023/06/02 09:18:27;;;;;;;26.83;12.47;;;17.80;83.10;;;;;;4957706;29;20393;-51
2023/06/02 09:20:54;;;;;;;23.40;14.70;;;17.70;86.70;;;;;;4957802;29;20401;-50
2023/06/02 09:23:20;;;;;;;9.40;7.20;;;17.80;89.00;;;;;;4956672;29;20718;-49
2023/06/02 09:25:46;;;;;;;9.03;6.20;;;17.90;86.10;;;;;;4957049;29;20674;-51
2023/06/02 09:28:12;;;;;;;7.87;6.43;;;18.00;86.10;;;;;;4957749;29;20455;-52
2023/06/02 09:30:39;;;;;;;10.63;7.00;;;18.10;88.00;;;;;;4955778;29;20721;-51
2023/06/02 09:33:11;;;;;;;12.73;8.07;;;18.40;87.00;;;;;;4957704;29;20409;-51
2023/06/02 09:35:41;;;;;;;17.17;9.57;;;18.50;86.40;;;;;;4957025;29;20746;-50
2023/06/02 09:38:15;;;;;;;81.00;22.07;;;18.50;84.90;;;;;;4957765;28;20382;-49
2023/06/02 09:40:42;;;;;;;8.40;7.20;;;18.70;85.60;;;;;;4956629;29;20423;-56
2023/06/02 09:43:12;;;;;;;9.20;7.60;;;18.80;84.50;;;;;;4955898;29;20507;-51
2023/06/02 09:45:47;;;;;;;9.00;8.20;;;18.90;86.50;;;;;;4956830;29;20433;-52
2023/06/02 09:48:20;;;;;;;8.10;6.97;;;19.00;84.40;;;;;;4957905;29;20446;-53
2023/06/02 09:50:46;;;;;;;7.43;6.70;;;19.20;86.60;;;;;;4957061;29;20979;-53
2023/06/02 09:53:13;;;;;;;8.20;7.13;;;19.30;82.50;;;;;;4956767;28;20512;-50
2023/06/02 09:55:39;;;;;;;8.70;7.80;;;18.80;78.60;;;;;;4956716;28;20169;-53
2023/06/02 09:58:07;;;;;;;9.93;7.77;;;18.60;79.80;;;;;;4957456;29;20408;-50
2023/06/02 10:00:35;;;;;;;11.20;7.90;;;18.50;81.00;;;;;;4956499;29;20839;-51
2023/06/02 10:03:01;;;;;;;8.90;7.90;;;18.50;80.90;;;;;;4955270;29;20912;-51
2023/06/02 10:05:29;;;;;;;9.67;8.70;;;18.60;84.60;;;;;;4939715;29;20782;-53
2023/06/02 10:08:13;;;;;;;9.50;6.97;;;18.70;83.70;;;;;;4956455;29;20539;-49
2023/06/02 10:11:04;;;;;;;8.63;6.70;;;18.80;83.80;;;;;;4956247;28;20397;-49
2023/06/02 10:13:54;;;;;;;7.83;7.00;;;19.00;81.80;;;;;;4956096;28;20416;-55
2023/06/02 10:16:26;;;;;;;9.27;8.33;;;19.10;82.70;;;;;;4956864;29;20417;-52
2023/06/02 10:19:04;;;;;;;10.40;7.70;;;19.50;86.70;;;;;;4955048;29;20428;-50
2023/06/02 10:22:05;;;;;;;10.43;7.10;;;19.70;84.90;;;;;;4954972;29;20586;-61
2023/06/02 10:24:52;;;;;;;8.50;7.60;;;19.90;84.10;;;;;;4940351;29;20429;-53
2023/06/02 10:27:30;;;;;;;10.30;9.30;;;20.00;84.30;;;;;;4956765;28;20424;-49
2023/06/02 10:29:56;;;;;;;9.50;8.60;;;20.20;80.70;;;;;;4956663;28;20433;-48
2023/06/02 10:32:27;;;;;;;10.30;8.20;;;20.30;81.00;;;;;;4956826;29;20416;-49
2023/06/02 10:34:56;;;;;;;8.83;8.00;;;20.40;79.40;;;;;;4970785;28;20417;-50
2023/06/02 10:37:23;;;;;;;10.93;9.13;;;20.40;79.00;;;;;;4956452;29;20417;-49
2023/06/02 10:39:58;;;;;;;9.20;8.30;;;20.50;79.10;;;;;;4955876;29;20900;-51
2023/06/02 10:42:30;;;;;;;10.23;9.30;;;20.60;81.60;;;;;;4970931;28;20514;-48
2023/06/02 10:45:17;;;;;;;11.70;9.10;;;20.70;78.90;;;;;;4956478;29;20835;-48
2023/06/02 10:47:43;;;;;;;12.33;11.10;;;20.80;78.50;;;;;;4954466;29;20572;-50
2023/06/02 10:50:10;;;;;;;11.90;8.97;;;20.30;77.10;;;;;;4955991;29;20495;-52
2023/06/02 10:53:00;;;;;;;10.50;8.00;;;19.90;78.60;;;;;;4955653;28;20576;-48
2023/06/02 10:55:34;;;;;;;15.60;9.63;;;19.90;81.70;;;;;;4956179;29;20451;-48
2023/06/02 10:58:12;;;;;;;10.83;8.57;;;20.20;82.40;;;;;;4956116;29;21008;-48
2023/06/02 11:00:43;;;;;;;12.53;7.70;;;20.50;84.30;;;;;;4955361;28;20427;-51
2023/06/02 11:03:14;;;;;;;11.83;8.83;;;20.70;81.60;;;;;;4955529;28;20792;-48
2023/06/02 11:05:40;;;;;;;9.90;8.50;;;20.90;80.90;;;;;;4954894;29;20417;-48
2023/06/02 11:08:15;;;;;;;10.97;9.87;;;20.80;78.90;;;;;;4955927;28;20543;-49
2023/06/02 11:10:54;;;;;;;10.00;9.10;;;20.80;83.50;;;;;;4955311;28;20427;-50
2023/06/02 11:13:21;;;;;;;12.63;11.37;;;21.00;84.50;;;;;;4955869;29;20901;-50
2023/06/02 11:15:58;;;;;;;8.80;8.00;;;21.10;81.10;;;;;;4955178;28;20421;-51
2023/06/02 11:18:31;;;;;;;9.30;7.90;;;21.10;81.70;;;;;;4955697;29;20420;-52
2023/06/02 11:20:57;;;;;;;11.73;7.37;;;21.30;82.70;;;;;;4955112;28;20413;-48
2023/06/02 11:23:24;;;;;;;13.83;10.07;;;21.50;82.90;;;;;;4955603;29;20783;-49
2023/06/02 11:26:06;;;;;;;10.43;9.43;;;21.70;80.50;;;;;;4953738;29;20416;-48
2023/06/02 11:28:32;;;;;;;8.73;7.93;;;21.80;78.80;;;;;;4955253;28;20480;-49
2023/06/02 11:31:12;;;;;;;8.33;7.57;;;21.80;78.40;;;;;;4954941;29;20455;-48
2023/06/02 11:33:47;;;;;;;7.77;6.80;;;21.80;76.60;;;;;;4954590;29;20200;-51
2023/06/02 11:36:13;;;;;;;8.07;6.87;;;21.80;75.80;;;;;;4955532;28;20436;-49
2023/06/02 11:38:39;;;;;;;11.10;7.57;;;21.90;77.20;;;;;;4954760;29;20951;-50
2023/06/02 11:41:13;;;;;;;8.20;7.40;;;21.90;77.40;;;;;;4955319;29;20402;-48
2023/06/02 11:43:40;;;;;;;12.10;8.80;;;21.90;78.20;;;;;;4954158;29;20465;-49
2023/06/02 11:46:08;;;;;;;9.63;8.67;;;21.90;75.80;;;;;;4954875;28;20440;-54
2023/06/02 11:48:38;;;;;;;11.50;8.47;;;21.80;75.90;;;;;;4955048;29;20487;-49
2023/06/02 11:51:08;;;;;;;11.60;8.07;;;21.80;78.10;;;;;;4970129;28;20805;-52
2023/06/02 11:53:47;;;;;;;13.13;11.10;;;21.70;78.00;;;;;;4955103;29;20389;-52
2023/06/02 11:56:13;;;;;;;8.90;8.10;;;21.70;78.70;;;;;;4955354;28;20409;-49
2023/06/02 11:58:43;;;;;;;8.83;7.93;;;21.80;79.40;;;;;;4954698;29;20439;-52
2023/06/02 12:01:14;;;;;;;10.60;8.10;;;21.80;78.00;;;;;;4954981;29;20496;-55
2023/06/02 12:03:40;;;;;;;9.87;8.90;;;21.90;79.00;;;;;;4954418;29;20393;-49
2023/06/02 12:06:12;;;;;;;10.10;8.57;;;21.90;79.10;;;;;;4954910;29;20444;-49
2023/06/02 12:08:38;;;;;;;9.37;7.40;;;22.00;78.80;;;;;;4953888;28;20846;-50
2023/06/02 12:11:14;;;;;;;8.33;7.70;;;22.10;79.30;;;;;;4955114;29;20427;-49
2023/06/02 12:13:40;;;;;;;10.43;7.83;;;22.10;76.30;;;;;;4954386;29;20181;-55
2023/06/02 12:16:20;;;;;;;11.00;7.37;;;22.00;78.10;;;;;;4953324;28;20409;-51
2023/06/02 12:18:46;;;;;;;8.83;7.87;;;21.70;76.40;;;;;;4954155;29;20181;-49
2023/06/02 12:21:31;;;;;;;7.93;6.10;;;21.80;77.50;;;;;;4954710;28;20417;-51
2023/06/02 12:23:58;;;;;;;6.87;6.17;;;21.80;77.40;;;;;;4954139;28;20456;-52
2023/06/02 12:26:24;;;;;;;8.50;7.70;;;21.80;76.00;;;;;;4954607;29;20393;-49
2023/06/02 12:28:50;;;;;;;7.03;6.33;;;21.70;78.60;;;;;;4952678;29;20964;-53
2023/06/02 12:31:17;;;;;;;8.07;6.63;;;21.70;78.20;;;;;;4954538;29;20940;-49
2023/06/02 12:33:43;;;;;;;9.17;6.73;;;21.70;79.30;;;;;;4954221;29;20416;-48
2023/06/02 12:36:10;;;;;;;8.33;7.73;;;21.80;78.30;;;;;;4954523;29;20432;-54
2023/06/02 12:38:40;;;;;;;6.80;5.80;;;21.80;77.00;;;;;;4954182;29;20419;-50
2023/06/02 12:41:15;;;;;;;7.90;7.27;;;21.80;77.50;;;;;;4954708;28;20397;-48
2023/06/02 12:43:41;;;;;;;7.63;6.90;;;21.90;77.90;;;;;;4954209;29;20475;-55
2023/06/02 12:46:08;;;;;;;8.80;6.93;;;22.00;82.10;;;;;;4954438;28;20487;-49
2023/06/02 12:48:34;;;;;;;8.83;6.73;;;21.90;78.10;;;;;;4954409;29;20448;-48